createdAt,value
2018-04-08T00:00:38.624Z,60.31
2018-04-08T00:03:06.137Z,59.67
2018-04-08T00:05:33.697Z,61.01
2018-04-08T00:08:01.196Z,60.18
2018-04-08T00:10:28.716Z,61.49
2018-04-08T00:12:56.231Z,60.60
2018-04-08T00:15:23.697Z,61.11
2018-04-08T00:17:51.180Z,60.56
2018-04-08T00:20:18.652Z,60.76
2018-04-08T00:22:46.141Z,60.62
2018-04-08T00:25:13.644Z,60.34
2018-04-08T00:27:41.219Z,60.57
2018-04-08T00:30:08.692Z,60.90
2018-04-08T00:32:36.239Z,61.35
2018-04-08T00:35:03.706Z,60.60
2018-04-08T00:37:31.195Z,60.60
2018-04-08T00:39:58.668Z,60.76
2018-04-08T00:42:26.177Z,60.74
2018-04-08T00:44:53.652Z,59.74
2018-04-08T00:47:21.139Z,59.69
2018-04-08T00:49:48.621Z,59.56
2018-04-08T00:52:16.106Z,59.79
2018-04-08T00:54:43.595Z,59.50
2018-04-08T00:57:11.086Z,59.20
2018-04-08T00:59:38.573Z,59.31
2018-04-08T01:02:06.069Z,59.53
2018-04-08T01:04:33.540Z,59.80
2018-04-08T01:07:01.049Z,59.89
2018-04-08T01:09:28.519Z,60.44
2018-04-08T01:11:56.010Z,60.07
2018-04-08T01:14:23.476Z,60.38
2018-04-08T01:16:50.952Z,60.15
2018-04-08T01:19:18.451Z,60.43
2018-04-08T01:21:46.280Z,60.89
2018-04-08T01:24:13.760Z,61.30
2018-04-08T01:26:41.369Z,61.08
2018-04-08T01:29:08.861Z,61.97
2018-04-08T01:31:36.332Z,61.54
2018-04-08T01:34:03.820Z,61.47
2018-04-08T01:36:31.379Z,61.70
2018-04-08T01:38:58.872Z,62.45
2018-04-08T01:41:26.352Z,61.95
2018-04-08T01:43:53.839Z,61.86
2018-04-08T01:46:21.298Z,61.51
2018-04-08T01:48:48.783Z,61.76
2018-04-08T01:51:16.252Z,61.31
2018-04-08T01:53:43.751Z,61.29
2018-04-08T01:56:11.211Z,60.89
2018-04-08T01:58:38.715Z,61.15
2018-04-08T02:01:06.273Z,61.29
2018-04-08T02:03:33.763Z,60.62
2018-04-08T02:06:01.244Z,61.40
2018-04-08T02:08:28.723Z,61.20
2018-04-08T02:10:56.192Z,60.21
2018-04-08T02:13:23.675Z,59.67
2018-04-08T02:15:51.145Z,59.38
2018-04-08T02:18:18.643Z,58.25
2018-04-08T02:20:46.160Z,58.35
2018-04-08T02:23:13.636Z,58.94
2018-04-08T02:25:41.140Z,58.68
2018-04-08T02:28:08.599Z,59.09
2018-04-08T02:30:36.140Z,59.25
2018-04-08T02:33:03.644Z,61.44
2018-04-08T02:35:31.168Z,60.58
2018-04-08T02:37:58.681Z,60.39
2018-04-08T02:40:26.215Z,60.08
2018-04-08T02:42:53.689Z,59.83
2018-04-08T02:45:21.192Z,60.31
2018-04-08T02:47:48.655Z,59.85
2018-04-08T02:50:16.152Z,60.68
2018-04-08T02:52:43.616Z,60.15
2018-04-08T02:55:11.103Z,60.62
2018-04-08T02:57:38.593Z,60.84
2018-04-08T03:00:06.089Z,60.30
2018-04-08T03:02:33.575Z,59.85
2018-04-08T03:05:01.068Z,61.20
2018-04-08T03:07:28.537Z,61.38
2018-04-08T03:09:56.045Z,62.84
2018-04-08T03:12:23.515Z,62.77
2018-04-08T03:14:51.007Z,62.64
2018-04-08T03:17:18.562Z,63.28
2018-04-08T03:19:46.176Z,63.04
2018-04-08T03:22:13.692Z,63.37
2018-04-08T03:24:41.198Z,64.16
2018-04-08T03:27:08.664Z,64.32
2018-04-08T03:29:36.124Z,64.47
2018-04-08T03:32:03.612Z,64.00
2018-04-08T03:34:31.080Z,64.35
2018-04-08T03:36:58.583Z,64.41
2018-04-08T03:39:26.049Z,64.75
2018-04-08T03:41:53.536Z,64.60
2018-04-08T03:44:20.999Z,64.01
2018-04-08T03:46:48.496Z,62.72
2018-04-08T03:49:16.008Z,60.87
2018-04-08T03:51:43.508Z,59.20
2018-04-08T03:54:10.967Z,57.89
2018-04-08T03:56:38.455Z,56.18
2018-04-08T03:59:05.919Z,55.83
2018-04-08T04:01:33.410Z,55.31
2018-04-08T04:04:00.877Z,55.92
2018-04-08T04:06:28.367Z,56.02
2018-04-08T04:08:55.847Z,56.39
2018-04-08T04:11:23.336Z,56.42
2018-04-08T04:13:50.811Z,57.39
2018-04-08T04:16:18.296Z,57.32
2018-04-08T04:18:57.585Z,56.93
2018-04-08T04:21:36.926Z,57.56
2018-04-08T04:24:16.296Z,57.43
2018-04-08T04:26:43.829Z,57.42
2018-04-08T04:29:11.302Z,57.47
2018-04-08T04:31:38.787Z,57.46
2018-04-08T04:34:06.264Z,57.33
2018-04-08T04:36:33.753Z,56.56
2018-04-08T04:39:01.314Z,55.65
2018-04-08T04:41:28.804Z,55.21
2018-04-08T04:43:56.275Z,55.73
2018-04-08T04:46:23.779Z,57.42
2018-04-08T04:48:51.249Z,58.29
2018-04-08T04:51:18.753Z,59.18
2018-04-08T04:53:46.272Z,59.52
2018-04-08T04:56:13.739Z,61.06
2018-04-08T04:58:41.244Z,60.58
2018-04-08T05:01:08.780Z,60.81
2018-04-08T05:03:36.267Z,61.56
2018-04-08T05:06:03.757Z,62.32
2018-04-08T05:08:31.240Z,62.38
2018-04-08T05:10:58.783Z,63.09
2018-04-08T05:13:26.267Z,62.76
2018-04-08T05:15:53.832Z,62.84
2018-04-08T05:18:21.340Z,62.76
2018-04-08T05:20:48.812Z,62.72
2018-04-08T05:23:16.308Z,63.43
2018-04-08T05:25:43.775Z,63.46
2018-04-08T05:28:11.277Z,63.66
2018-04-08T05:30:38.755Z,63.62
2018-04-08T05:33:06.241Z,63.45
2018-04-08T05:35:33.734Z,63.15
2018-04-08T05:38:01.216Z,62.72
2018-04-08T05:40:28.680Z,62.87
2018-04-08T05:42:56.500Z,63.12
2018-04-08T05:45:23.963Z,62.26
2018-04-08T05:47:51.449Z,62.75
2018-04-08T05:50:19.008Z,62.42
2018-04-08T05:52:46.501Z,61.99
2018-04-08T05:55:13.980Z,61.82
2018-04-08T05:57:41.515Z,61.79
2018-04-08T06:00:08.990Z,61.40
2018-04-08T06:02:36.497Z,61.42
2018-04-08T06:05:04.044Z,60.57
2018-04-08T06:07:31.532Z,59.91
2018-04-08T06:09:59.024Z,58.57
2018-04-08T06:12:26.513Z,59.40
2018-04-08T06:14:54.053Z,58.77
2018-04-08T06:17:21.561Z,58.59
2018-04-08T06:19:49.120Z,56.64
2018-04-08T06:22:16.676Z,56.14
2018-04-08T06:24:44.166Z,56.09
2018-04-08T06:27:11.632Z,55.58
2018-04-08T06:29:39.122Z,56.31
2018-04-08T06:32:06.593Z,54.76
2018-04-08T06:34:34.088Z,54.68
2018-04-08T06:37:01.552Z,54.17
2018-04-08T06:39:29.051Z,54.13
2018-04-08T06:41:56.533Z,53.85
2018-04-08T06:44:24.106Z,52.89
2018-04-08T06:46:51.629Z,52.20
2018-04-08T06:49:19.135Z,52.19
2018-04-08T06:51:46.604Z,52.08
2018-04-08T06:54:14.126Z,52.96
2018-04-08T06:56:41.596Z,52.38
2018-04-08T06:59:09.092Z,52.99
2018-04-08T07:01:36.576Z,51.24
2018-04-08T07:04:04.069Z,52.18
2018-04-08T07:06:31.630Z,51.08
2018-04-08T07:08:59.106Z,50.87
2018-04-08T07:11:26.601Z,50.64
2018-04-08T07:13:54.095Z,50.54
2018-04-08T07:16:21.697Z,49.72
2018-04-08T07:18:49.169Z,50.47
2018-04-08T07:21:16.681Z,49.72
2018-04-08T07:23:44.144Z,49.13
2018-04-08T07:26:11.657Z,48.33
2018-04-08T07:28:39.156Z,48.36
2018-04-08T07:31:06.649Z,48.01
2018-04-08T07:33:34.206Z,47.92
2018-04-08T07:36:01.692Z,47.27
2018-04-08T07:38:29.159Z,46.60
2018-04-08T07:40:56.667Z,46.02
2018-04-08T07:43:24.140Z,45.27
2018-04-08T07:45:51.665Z,44.34
2018-04-08T07:48:19.165Z,45.02
2018-04-08T07:50:46.714Z,43.41
2018-04-08T07:53:14.410Z,43.94
2018-04-08T07:55:41.900Z,44.42
2018-04-08T07:58:10.485Z,44.82
2018-04-08T08:00:37.977Z,44.70
2018-04-08T08:03:05.460Z,43.67
2018-04-08T08:05:32.964Z,43.40
2018-04-08T08:08:00.443Z,42.45
2018-04-08T08:10:27.948Z,41.80
2018-04-08T08:12:55.449Z,41.61
2018-04-08T08:15:22.935Z,40.36
2018-04-08T08:17:50.612Z,39.56
2018-04-08T08:20:18.178Z,39.50
2018-04-08T08:22:46.241Z,39.22
2018-04-08T08:25:13.748Z,37.78
2018-04-08T08:27:41.230Z,38.80
2018-04-08T08:30:08.714Z,39.32
2018-04-08T08:32:36.210Z,38.29
2018-04-08T08:35:03.681Z,37.56
2018-04-08T08:39:55.233Z,36.99
2018-04-08T08:42:22.724Z,35.73
2018-04-08T08:44:50.227Z,36.59
2018-04-08T08:47:17.714Z,36.54
2018-04-08T08:49:45.267Z,35.91
2018-04-08T08:52:12.785Z,35.84
2018-04-08T08:54:40.264Z,35.59
2018-04-08T08:57:07.752Z,35.28
2018-04-08T08:59:35.224Z,35.57
2018-04-08T09:02:02.713Z,34.67
2018-04-08T09:04:30.177Z,36.11
2018-04-08T09:06:57.664Z,34.93
2018-04-08T09:09:25.160Z,34.34
2018-04-08T09:11:52.767Z,33.23
2018-04-08T09:14:20.321Z,33.45
2018-04-08T09:16:47.812Z,34.31
2018-04-08T09:19:20.996Z,34.57
2018-04-08T09:21:54.198Z,33.15
2018-04-08T09:24:24.244Z,33.30
2018-04-08T09:26:51.756Z,33.28
2018-04-08T09:29:19.225Z,34.11
2018-04-08T09:31:46.726Z,32.30
2018-04-08T09:34:14.204Z,34.31
2018-04-08T09:36:41.784Z,32.72
2018-04-08T09:39:09.275Z,30.83
2018-04-08T09:41:36.795Z,32.10
2018-04-08T09:44:04.261Z,30.41
2018-04-08T09:49:13.860Z,28.25
2018-04-08T09:51:41.356Z,27.63
2018-04-08T09:54:08.836Z,26.64
2018-04-08T09:56:36.330Z,26.38
2018-04-08T09:59:03.817Z,26.70
2018-04-08T10:04:38.899Z,25.06
2018-04-08T10:07:06.400Z,25.02
2018-04-08T10:09:33.931Z,25.67
2018-04-08T10:12:01.488Z,25.54
2018-04-08T10:14:28.964Z,24.91
2018-04-08T10:16:56.521Z,24.34
2018-04-08T10:19:24.439Z,24.52
2018-04-08T10:21:51.923Z,23.00
2018-04-08T10:24:19.424Z,22.66
2018-04-08T10:26:47.384Z,22.31
2018-04-08T10:29:14.972Z,22.50
2018-04-08T10:31:42.397Z,21.26
2018-04-08T10:34:09.893Z,21.31
2018-04-08T10:36:37.481Z,21.13
2018-04-08T10:39:04.979Z,21.23
2018-04-08T10:41:32.452Z,23.00
2018-04-08T10:43:59.975Z,21.45
2018-04-08T10:46:27.469Z,20.59
2018-04-08T10:48:55.135Z,19.83
2018-04-08T10:51:22.694Z,19.73
2018-04-08T10:53:50.188Z,19.50
2018-04-08T10:56:17.723Z,18.93
2018-04-08T10:58:45.426Z,18.14
2018-04-08T11:01:12.987Z,17.52
2018-04-08T11:03:40.492Z,18.17
2018-04-08T11:06:07.965Z,18.22
2018-04-08T11:08:35.462Z,18.09
2018-04-08T11:11:02.948Z,20.72
2018-04-08T11:13:30.448Z,20.04
2018-04-08T11:15:57.924Z,19.47
2018-04-08T11:18:25.425Z,18.92
2018-04-08T11:20:53.104Z,18.14
2018-04-08T11:23:20.611Z,18.06
2018-04-08T11:25:48.152Z,17.08
2018-04-08T11:28:15.683Z,17.84
2018-04-08T11:30:43.148Z,18.24
2018-04-08T11:33:10.625Z,17.37
2018-04-08T11:35:38.122Z,18.82
2018-04-08T11:38:05.593Z,20.20
2018-04-08T11:40:33.094Z,21.11
2018-04-08T11:43:00.573Z,21.67
2018-04-08T11:45:28.059Z,21.27
2018-04-08T11:47:55.534Z,21.54
2018-04-08T11:50:23.068Z,20.35
2018-04-08T11:52:50.549Z,22.59
2018-04-08T11:55:18.133Z,21.56
2018-04-08T11:57:45.683Z,21.41
2018-04-08T12:00:13.194Z,21.43
2018-04-08T12:02:40.682Z,21.00
2018-04-08T12:05:08.176Z,20.30
2018-04-08T12:07:35.660Z,18.55
2018-04-08T12:10:03.160Z,19.59
2018-04-08T12:12:30.675Z,19.98
2018-04-08T12:14:58.194Z,22.36
2018-04-08T12:17:25.672Z,23.03
2018-04-08T12:19:53.168Z,22.35
2018-04-08T12:22:20.655Z,23.21
2018-04-08T12:24:48.144Z,24.12
2018-04-08T12:27:15.644Z,23.50
2018-04-08T12:29:43.152Z,22.01
2018-04-08T12:32:10.624Z,20.70
2018-04-08T12:34:38.202Z,21.33
2018-04-08T12:37:05.760Z,20.85
2018-04-08T12:39:33.256Z,18.02
2018-04-08T12:42:00.752Z,15.95
2018-04-08T12:44:28.232Z,14.56
2018-04-08T12:46:55.748Z,15.48
2018-04-08T12:49:23.217Z,14.61
2018-04-08T12:51:50.723Z,12.57
2018-04-08T12:54:18.220Z,12.38
2018-04-08T12:56:45.791Z,12.01
2018-04-08T12:59:13.265Z,12.35
2018-04-08T13:01:40.763Z,12.43
2018-04-08T13:04:08.248Z,12.16
2018-04-08T13:06:35.789Z,13.94
2018-04-08T13:09:03.271Z,14.05
2018-04-08T13:11:30.879Z,15.61
2018-04-08T13:13:58.404Z,15.78
2018-04-08T13:16:25.916Z,15.92
2018-04-08T13:18:53.387Z,13.66
2018-04-08T13:21:20.901Z,14.88
2018-04-08T13:23:48.376Z,13.96
2018-04-08T13:26:15.946Z,15.23
2018-04-08T13:28:43.468Z,16.17
2018-04-08T13:31:10.964Z,14.67
2018-04-08T13:33:38.472Z,14.37
2018-04-08T13:36:05.984Z,15.67
2018-04-08T13:38:33.464Z,16.39
2018-04-08T13:41:00.961Z,16.41
2018-04-08T13:43:28.436Z,14.39
2018-04-08T13:45:55.936Z,15.45
2018-04-08T13:48:23.431Z,14.78
2018-04-08T13:50:51.101Z,14.40
2018-04-08T13:53:18.708Z,14.59
2018-04-08T13:55:46.428Z,14.66
2018-04-08T13:58:14.021Z,13.67
2018-04-08T14:00:41.532Z,13.79
2018-04-08T14:03:09.097Z,14.05
2018-04-08T14:05:36.567Z,14.98
2018-04-08T14:08:04.093Z,15.45
2018-04-08T14:10:31.580Z,14.90
2018-04-08T14:12:59.109Z,13.88
2018-04-08T14:15:26.620Z,12.86
2018-04-08T14:17:54.136Z,13.21
2018-04-08T14:20:21.645Z,11.05
2018-04-08T14:22:49.136Z,11.46
2018-04-08T14:25:16.616Z,13.40
2018-04-08T14:27:44.144Z,14.38
2018-04-08T14:30:11.623Z,13.73
2018-04-08T14:32:39.111Z,13.70
2018-04-08T14:35:06.595Z,12.71
2018-04-08T14:37:34.181Z,14.06
2018-04-08T14:40:01.672Z,14.07
2018-04-08T14:42:29.161Z,12.79
2018-04-08T14:44:56.626Z,13.15
2018-04-08T14:47:24.121Z,13.62
2018-04-08T14:49:51.603Z,13.71
2018-04-08T14:52:20.820Z,13.49
2018-04-08T14:54:48.358Z,13.26
2018-04-08T14:57:16.029Z,14.72
2018-04-08T14:59:43.541Z,12.90
2018-04-08T15:02:11.028Z,12.96
2018-04-08T15:04:38.501Z,14.70
2018-04-08T15:07:06.097Z,15.63
2018-04-08T15:09:33.620Z,15.10
2018-04-08T15:12:01.101Z,16.53
2018-04-08T15:14:28.628Z,16.50
2018-04-08T15:16:56.146Z,17.98
2018-04-08T15:19:23.733Z,18.26
2018-04-08T15:21:51.208Z,18.21
2018-04-08T15:24:18.712Z,17.00
2018-04-08T15:26:46.304Z,17.06
2018-04-08T15:29:13.797Z,19.54
2018-04-08T15:31:41.366Z,18.93
2018-04-08T15:34:08.861Z,17.60
2018-04-08T15:36:36.346Z,18.00
2018-04-08T15:39:03.860Z,18.37
2018-04-08T15:41:31.619Z,17.51
2018-04-08T15:43:59.169Z,18.04
2018-04-08T15:46:26.683Z,20.19
2018-04-08T15:48:54.183Z,20.36
2018-04-08T15:51:21.731Z,20.37
2018-04-08T15:53:49.192Z,18.19
2018-04-08T15:56:16.767Z,15.59
2018-04-08T15:58:44.336Z,16.16
2018-04-08T16:01:11.825Z,17.39
2018-04-08T16:03:39.335Z,18.02
2018-04-08T16:06:06.815Z,19.36
2018-04-08T16:08:34.331Z,20.46
2018-04-08T16:11:01.804Z,21.77
2018-04-08T16:13:29.332Z,23.61
2018-04-08T16:15:56.812Z,25.24
2018-04-08T16:18:24.280Z,26.50
2018-04-08T16:20:51.808Z,28.16
2018-04-08T16:23:19.279Z,27.71
2018-04-08T16:25:46.836Z,28.30
2018-04-08T16:28:14.312Z,28.56
2018-04-08T16:30:41.817Z,29.05
2018-04-08T16:33:09.358Z,28.52
2018-04-08T16:35:36.846Z,29.00
2018-04-08T16:38:04.351Z,28.87
2018-04-08T16:40:31.847Z,29.22
2018-04-08T16:42:59.340Z,29.73
2018-04-08T16:45:26.850Z,29.60
2018-04-08T16:47:54.410Z,29.32
2018-04-08T16:50:21.932Z,30.45
2018-04-08T16:52:49.406Z,30.06
2018-04-08T16:55:16.896Z,29.75
2018-04-08T16:57:44.371Z,30.65
2018-04-08T17:00:11.873Z,30.69
2018-04-08T17:02:39.351Z,32.25
2018-04-08T17:05:06.843Z,32.13
2018-04-08T17:07:34.340Z,31.90
2018-04-08T17:10:01.882Z,32.47
2018-04-08T17:12:29.332Z,32.01
2018-04-08T17:14:56.844Z,31.69
2018-04-08T17:17:24.326Z,33.45
2018-04-08T17:19:51.840Z,33.31
2018-04-08T17:22:19.353Z,33.34
2018-04-08T17:24:46.964Z,33.45
2018-04-08T17:27:14.532Z,34.58
2018-04-08T17:29:42.028Z,33.62
2018-04-08T17:32:09.508Z,33.45
2018-04-08T17:34:37.015Z,33.61
2018-04-08T17:37:04.487Z,33.52
2018-04-08T17:39:33.037Z,33.99
2018-04-08T17:42:00.508Z,34.16
2018-04-08T17:44:28.009Z,35.00
2018-04-08T17:46:55.500Z,34.61
2018-04-08T17:49:22.985Z,35.45
2018-04-08T17:51:50.484Z,35.03
2018-04-08T17:54:17.954Z,35.06
2018-04-08T17:56:45.492Z,35.23
2018-04-08T17:59:13.022Z,35.81
2018-04-08T18:01:40.526Z,36.09
2018-04-08T18:04:08.021Z,36.94
2018-04-08T18:06:35.570Z,37.08
2018-04-08T18:09:03.053Z,36.80
2018-04-08T18:11:30.568Z,37.36
2018-04-08T18:13:58.048Z,37.88
2018-04-08T18:16:25.554Z,38.19
2018-04-08T18:18:53.034Z,38.49
2018-04-08T18:21:20.565Z,38.78
2018-04-08T18:23:48.109Z,38.88
2018-04-08T18:26:15.599Z,38.99
2018-04-08T18:28:43.077Z,39.95
2018-04-08T18:31:10.624Z,39.64
2018-04-08T18:33:38.104Z,40.38
2018-04-08T18:36:05.600Z,40.77
2018-04-08T18:38:33.080Z,40.92
2018-04-08T18:41:00.593Z,41.22
2018-04-08T18:43:28.071Z,41.98
2018-04-08T18:45:55.568Z,42.43
2018-04-08T18:48:23.040Z,42.27
2018-04-08T18:50:50.565Z,41.74
2018-04-08T18:53:18.038Z,41.78
2018-04-08T18:55:45.520Z,42.54
2018-04-08T18:58:13.027Z,42.60
2018-04-08T19:00:40.584Z,42.68
2018-04-08T19:03:08.082Z,42.42
2018-04-08T19:05:35.575Z,42.83
2018-04-08T19:08:03.059Z,43.52
2018-04-08T19:10:30.539Z,44.15
2018-04-08T19:12:58.650Z,44.50
2018-04-08T19:15:26.116Z,44.93
2018-04-08T19:17:59.300Z,44.95
2018-04-08T19:20:26.784Z,45.00
2018-04-08T19:22:54.301Z,45.71
2018-04-08T19:25:21.772Z,44.25
2018-04-08T19:27:49.267Z,44.66
2018-04-08T19:30:21.356Z,45.29
2018-04-08T19:32:48.840Z,44.57
2018-04-08T19:35:16.309Z,44.74
2018-04-08T19:37:43.841Z,44.74
2018-04-08T19:40:11.352Z,44.64
2018-04-08T19:42:38.861Z,44.70
2018-04-08T19:45:06.329Z,45.75
2018-04-08T19:47:33.838Z,43.90
2018-04-08T19:50:01.322Z,44.02
2018-04-08T19:52:28.856Z,43.58
2018-04-08T19:54:56.343Z,43.76
2018-04-08T19:57:23.829Z,43.71
2018-04-08T19:59:51.310Z,44.43
2018-04-08T20:02:18.827Z,44.86
2018-04-08T20:04:46.517Z,45.85
2018-04-08T20:07:14.114Z,44.60
2018-04-08T20:09:41.777Z,44.25
2018-04-08T20:12:09.441Z,44.88
2018-04-08T20:14:37.305Z,45.93
2018-04-08T20:17:05.018Z,47.17
2018-04-08T20:19:32.744Z,46.58
2018-04-08T20:22:00.309Z,46.76
2018-04-08T20:24:27.926Z,47.82
2018-04-08T20:26:55.770Z,47.63
2018-04-08T20:29:23.499Z,47.70
2018-04-08T20:31:51.041Z,48.93
2018-04-08T20:34:18.768Z,49.04
2018-04-08T20:36:46.329Z,48.88
2018-04-08T20:39:14.035Z,49.46
2018-04-08T20:41:41.692Z,49.88
2018-04-08T20:44:09.335Z,46.86
2018-04-08T20:46:36.863Z,47.74
2018-04-08T20:49:04.739Z,46.76
2018-04-08T20:51:32.338Z,48.38
2018-04-08T20:54:00.041Z,48.00
2018-04-08T20:56:27.767Z,48.56
2018-04-08T20:58:55.488Z,48.17
2018-04-08T21:01:23.093Z,49.60
2018-04-08T21:03:50.856Z,50.06
2018-04-08T21:06:18.620Z,51.35
2018-04-08T21:08:46.238Z,51.19
2018-04-08T21:11:14.053Z,51.33
2018-04-08T21:13:41.812Z,51.16
2018-04-08T21:16:09.424Z,51.44
2018-04-08T21:18:37.138Z,51.37
2018-04-08T21:21:04.802Z,52.07
2018-04-08T21:23:32.341Z,51.18
2018-04-08T21:26:00.123Z,53.43
2018-04-08T21:28:27.785Z,52.93
2018-04-08T21:30:55.273Z,52.97
2018-04-08T21:33:22.745Z,53.85
2018-04-08T21:35:50.232Z,54.13
2018-04-08T21:38:17.710Z,54.25
2018-04-08T21:40:45.203Z,54.45
2018-04-08T21:43:12.664Z,54.55
2018-04-08T21:45:40.144Z,54.89
2018-04-08T21:48:07.616Z,55.48
2018-04-08T21:50:35.175Z,55.45
2018-04-08T21:53:02.644Z,55.13
2018-04-08T21:55:30.142Z,55.70
2018-04-08T21:57:57.608Z,56.66
2018-04-08T22:00:25.105Z,55.98
2018-04-08T22:02:52.607Z,56.21
2018-04-08T22:05:20.112Z,55.53
2018-04-08T22:07:47.698Z,55.16
2018-04-08T22:10:15.184Z,55.78
2018-04-08T22:12:42.731Z,55.42
2018-04-08T22:15:10.220Z,55.55
2018-04-08T22:17:37.687Z,55.23
2018-04-08T22:20:05.268Z,55.80
2018-04-08T22:22:32.866Z,55.41
2018-04-08T22:25:00.335Z,55.27
2018-04-08T22:27:27.836Z,55.50
2018-04-08T22:29:55.301Z,55.33
2018-04-08T22:32:22.900Z,55.72
2018-04-08T22:34:50.367Z,56.05
2018-04-08T22:37:17.877Z,57.01
2018-04-08T22:39:45.444Z,57.48
2018-04-08T22:42:13.001Z,58.05
2018-04-08T22:44:40.540Z,58.28
2018-04-08T22:47:08.028Z,57.46
2018-04-08T22:49:35.496Z,57.31
2018-04-08T22:52:02.991Z,57.81
2018-04-08T22:54:30.464Z,57.93
2018-04-08T22:56:57.955Z,58.43
2018-04-08T22:59:25.416Z,58.75
2018-04-08T23:01:52.928Z,59.21
2018-04-08T23:04:20.400Z,58.66
2018-04-08T23:06:47.884Z,58.74
2018-04-08T23:09:15.398Z,59.34
2018-04-08T23:11:42.971Z,59.61
2018-04-08T23:14:10.440Z,59.92
2018-04-08T23:16:37.932Z,60.76
2018-04-08T23:19:05.397Z,60.67
2018-04-08T23:21:32.973Z,60.12
2018-04-08T23:24:00.440Z,59.89
2018-04-08T23:26:27.952Z,60.44
2018-04-08T23:28:55.531Z,60.42
2018-04-08T23:31:23.046Z,60.40
2018-04-08T23:33:50.508Z,60.69
2018-04-08T23:36:17.973Z,60.68
2018-04-08T23:38:45.464Z,60.52
2018-04-08T23:41:12.924Z,61.31
2018-04-08T23:43:40.429Z,60.81
2018-04-08T23:46:07.919Z,61.24
2018-04-08T23:48:35.413Z,61.82
2018-04-08T23:51:02.897Z,61.74
2018-04-08T23:53:30.379Z,61.84
2018-04-08T23:55:57.876Z,61.57
2018-04-08T23:58:25.355Z,61.85
